»·PEaware :: SKW5425 KSFO-KONT

SKW5425 :: KSFO-KONT

FLIGHT INFORMATION

Flight Status: Arrived
Operator:
SkyWest Airlines
More flights by this operator :: More flights under this callsign
Pilot: Aundrey S. (17120)
Aircraft: CANADAIR CL-600 CRJ-200
(CRJ2)
More flights by this aircraft type
Origin: KSFO San Francisco Intl
United States
Destination: KONT Ontario Intl
United States
More flights between these airports :: More routes between these airports
Route: +WESLA4 LOSHN EHF ZIGGY7
File this flight plan on PilotEdge
Remarks:
Altitude:
(Current/Filed)
29,000ft
Speed:
(Current/Filed)
420kts
Departed: 10-Sep-19 03:04 PM
Arrived: 10-Sep-19 03:58 PM
Distance/Time
Traveled:
315nm/0:54
Distance/Time
To Go:
Arrived

Flight Plot

Page will automatically refresh every two minutes.

Flight plan parsing failed; only flown route is shown


Map Options




Map Legend


Flown Route
Filed Route
Departure Airport
Arrival Airport
Navaid (VOR, NDB)
Fix

Horizontal Profiles

Position Reports

Time Latitude Longitude Heading Altitude Ground
Speed
10-Sep-19 14:39 37.614213 -122.382273 350 28ft 0kts
10-Sep-19 14:40 37.614213 -122.382273 350 28ft 0kts
10-Sep-19 14:41 37.614213 -122.382273 350 28ft 0kts
10-Sep-19 14:42 37.614213 -122.382273 350 28ft 0kts
10-Sep-19 14:43 37.614213 -122.382273 350 28ft 0kts
10-Sep-19 14:44 37.614213 -122.382273 350 28ft 0kts
10-Sep-19 14:45 37.614213 -122.382273 350 28ft 0kts
10-Sep-19 14:46 37.614213 -122.382273 350 28ft 0kts
10-Sep-19 14:47 37.614213 -122.382273 350 28ft 0kts
10-Sep-19 14:48 37.614213 -122.382273 350 28ft 0kts
10-Sep-19 14:49 37.614213 -122.382273 350 28ft 0kts
10-Sep-19 14:50 37.614213 -122.382273 350 28ft 0kts
10-Sep-19 14:51 37.613900 -122.382217 8 28ft 2kts
10-Sep-19 14:52 37.613672 -122.382762 118 28ft 1kts
10-Sep-19 14:53 37.613682 -122.382784 118 28ft 0kts
10-Sep-19 14:54 37.613682 -122.382784 118 28ft 0kts
10-Sep-19 14:55 37.613620 -122.382640 118 28ft 5kts
10-Sep-19 14:56 37.616191 -122.379930 27 28ft 15kts
10-Sep-19 14:57 37.616727 -122.378402 97 25ft 0kts
10-Sep-19 14:58 37.616397 -122.375119 97 15ft 20kts
10-Sep-19 14:59 37.614248 -122.368645 136 8ft 21kts
10-Sep-19 15:00 37.611085 -122.361684 116 5ft 24kts
10-Sep-19 15:01 37.610976 -122.359056 30 5ft 0kts
10-Sep-19 15:02 37.612722 -122.357881 27 5ft 19kts
10-Sep-19 15:03 37.623409 -122.380230 291 282ft 160kts
10-Sep-19 15:04 37.647776 -122.440826 297 2981ft 227kts
10-Sep-19 15:05 37.658164 -122.534883 234 4464ft 318kts
10-Sep-19 15:06 37.583717 -122.542438 150 10495ft 304kts
10-Sep-19 15:07 37.505712 -122.485919 153 13452ft 364kts
10-Sep-19 15:08 37.434914 -122.388986 131 17343ft 393kts
10-Sep-19 15:09 37.362343 -122.276531 131 19029ft 438kts
10-Sep-19 15:10 37.282028 -122.152309 131 19249ft 465kts
10-Sep-19 15:11 37.205371 -122.034164 132 21976ft 439kts
10-Sep-19 15:12 37.127105 -121.913978 133 25208ft 455kts
10-Sep-19 15:13 37.044861 -121.788187 133 28228ft 477kts
10-Sep-19 15:14 36.955810 -121.652554 133 29003ft 529kts
10-Sep-19 15:15 36.861327 -121.509141 133 29168ft 536kts
10-Sep-19 15:16 36.765965 -121.365047 133 29228ft 535kts
10-Sep-19 15:17 36.670714 -121.221770 134 29207ft 534kts
10-Sep-19 15:18 36.575632 -121.079334 134 29226ft 533kts
10-Sep-19 15:19 36.480275 -120.936982 134 29243ft 531kts
10-Sep-19 15:20 36.385949 -120.795725 134 29201ft 530kts
10-Sep-19 15:21 36.291304 -120.654554 134 29126ft 528kts
10-Sep-19 15:22 36.197108 -120.514629 135 29144ft 526kts
10-Sep-19 15:23 36.103061 -120.375508 135 29167ft 525kts
10-Sep-19 15:24 36.008834 -120.236695 136 29127ft 524kts
10-Sep-19 15:25 35.915208 -120.099323 136 29119ft 523kts
10-Sep-19 15:26 35.828841 -119.953104 120 29099ft 534kts
10-Sep-19 15:27 35.763500 -119.788982 120 29158ft 533kts
10-Sep-19 15:28 35.697637 -119.624360 120 29106ft 533kts
10-Sep-19 15:29 35.632008 -119.461132 120 29203ft 531kts
10-Sep-19 15:30 35.565714 -119.297034 121 29075ft 533kts
10-Sep-19 15:31 35.500336 -119.135219 117 29026ft 533kts
10-Sep-19 15:32 35.403569 -119.015547 161 29021ft 492kts
10-Sep-19 15:33 35.290907 -118.912961 148 29039ft 505kts
10-Sep-19 15:34 35.179695 -118.807630 148 29052ft 505kts
10-Sep-19 15:35 35.069900 -118.699852 136 28826ft 509kts
10-Sep-19 15:36 34.979004 -118.567590 134 26959ft 509kts
10-Sep-19 15:37 34.888521 -118.435760 134 24880ft 502kts
10-Sep-19 15:38 34.800637 -118.308164 134 22887ft 490kts
10-Sep-19 15:39 34.717486 -118.187882 134 21071ft 438kts
10-Sep-19 15:40 34.643410 -118.081054 135 19453ft 387kts
10-Sep-19 15:41 34.590118 -117.972432 122 17920ft 358kts
10-Sep-19 15:42 34.543836 -117.868922 122 16414ft 345kts
10-Sep-19 15:43 34.496459 -117.767688 123 14928ft 344kts
10-Sep-19 15:44 34.450503 -117.668606 122 14006ft 317kts
10-Sep-19 15:45 34.407921 -117.576361 122 14017ft 322kts
10-Sep-19 15:46 34.362772 -117.478676 122 14013ft 333kts
10-Sep-19 15:48 34.318076 -117.382294 122 13285ft 329kts
10-Sep-19 15:49 34.246434 -117.327975 168 11627ft 296kts
10-Sep-19 15:50 34.173053 -117.304203 169 9771ft 259kts
10-Sep-19 15:51 34.104561 -117.283298 167 7708ft 252kts
10-Sep-19 15:52 34.039257 -117.265812 189 6022ft 225kts
10-Sep-19 15:53 34.022376 -117.321514 281 6018ft 198kts
10-Sep-19 15:54 34.034104 -117.384920 281 5951ft 189kts
10-Sep-19 15:55 34.045556 -117.446886 281 4427ft 194kts
10-Sep-19 15:56 34.056704 -117.512107 274 2351ft 179kts
10-Sep-19 15:57 34.057000 -117.566165 268 1252ft 149kts
10-Sep-19 15:58 34.056923 -117.606694 288 935ft 23kts
10-Sep-19 15:59 34.057317 -117.607574 312 936ft 0kts
10-Sep-19 16:00 34.058014 -117.606789 90 939ft 12kts
10-Sep-19 16:01 34.058006 -117.600556 90 932ft 13kts
10-Sep-19 16:02 34.059958 -117.600060 39 937ft 4kts

Navigation Log

Ident Type
Flight plan parsing failed, navigation log unavailable